Terminal Aerodrome Forecast
Issued by NWS

Home | Current Version | Previous Version | Text Only | Print | Product List | Glossary On
Versions: 1 2 3 4 5 6 7 8 9 10 11 12 13 14
000
FTUS41 KBGM 281742
TAFELM
TAF
KELM 281742Z 2818/2918 VRB03KT P6SM SCT050 BKN250
     FM281900 22007KT P6SM BKN050
     FM290000 00000KT P6SM BKN250
     FM291500 20004KT P6SM BKN050=

USA.gov is the U.S. government's official web portal to all federal, state and local government web resources and services.